Moscow, Kentucky
Current Conditions -  °F | °C
As of 8:35 AM on Sunday 25 Jan 2015 (Local Time) from KUCY Reporting Station
Broken Clouds Broken Clouds  
Wind Chill: 34°   Ceiling: 9000
Heat Index: 39°   Visibility: 10mi
Dew Point: 36°   Wind: 8mph
Humidity: 87%   Direction: 180°S
Pressure: 29.68"   Gusts: NA
Location:  36.6807°N, 88.9572°W
Report Text: KUCY 251435Z AUTO 18007KT 10SM FEW070 BKN090 04/02 A2968 RMK
Loading
Personal Weather Stations






























Interactive Weather Map New forecast layout! Learn more

10-Day Weather Forecast

Advertisements
Track Severe Weather on mobile